Elena Of London — 2COR3 — position and weather

sailwx.info

Track history (hours):
 
Tides and Currents Weather Stations Pressure Air Temp Water Temp Dewpoint Dewpoint Depression Visibility Wind Speed Wind Dir Waves Ship Positions

Elena Of London

Last reported at 2015-Jul-29 21:28 UTC. Time now 2015-Jul-29 22:01 UTC.
Position N 38°37' E 015°04'.

Length 44 m; draft 5.2 m.

Type: Sailing vessel. MMSI: 235074534.

Date/timePositionNaut miles runAvg speedWind from/ knotsBaromVisibWave heightAir tempDewpointWater temp
2015-Jul-29 21:28N 38°37' E 015°04'0 0.0
2015-Jul-29 20:33N 38°37' E 015°04'0 0.0
2015-Jul-29 18:12N 38°37' E 015°04'0 0.0
2015-Jul-29 17:17N 38°37' E 015°04'0 0.0
2015-Jul-29 16:32N 38°37' E 015°04'0 0.0
2015-Jul-29 11:24N 38°38' E 015°04'1 0.9
2015-Jul-29 10:32N 38°38' E 015°05'0 0.0
2015-Jul-29 09:30N 38°38' E 015°05'0 0.0
2015-Jul-29 08:22N 38°38' E 015°05'0 0.0
2015-Jul-29 07:32N 38°38' E 015°05'0 0.0
2015-Jul-29 02:09N 38°38' E 015°05'0 0.0
2015-Jul-29 01:31N 38°38' E 015°05'0 0.0
2015-Jul-29 00:13N 38°38' E 015°05'0 0.0
2015-Jul-28 17:05N 38°38' E 015°05'0 0.0
2015-Jul-28 16:32N 38°38' E 015°05'1 1.1
2015-Jul-28 15:33N 38°39' E 015°06'1 0.5
2015-Jul-28 13:07N 38°38' E 015°05'0 0.0
2015-Jul-28 09:29N 38°38' E 015°05'0 0.0
2015-Jul-28 08:33N 38°38' E 015°05'0 0.0
2015-Jul-28 07:33N 38°38' E 015°05'0 0.0
2015-Jul-28 06:30N 38°38' E 015°05'0 0.0
2015-Jul-28 03:33N 38°38' E 015°05'0 0.0
2015-Jul-28 02:33N 38°38' E 015°05'0 0.0
2015-Jul-28 01:33N 38°38' E 015°05'0 0.0
2015-Jul-28 00:33N 38°38' E 015°05'0 0.0
2015-Jul-27 23:33N 38°38' E 015°05'0 0.0
2015-Jul-27 22:33N 38°38' E 015°05'0 0.0
2015-Jul-27 21:28N 38°38' E 015°05'5 5.3
2015-Jul-27 20:33N 38°35' E 015°10'8 8.5
2015-Jul-27 19:33N 38°31' E 015°19'9 9.4
2015-Jul-27 18:33N 38°26' E 015°30'1010.0
2015-Jul-27 17:33N 38°21' E 015°41'7 6.9
2015-Jul-27 16:33N 38°14' E 015°38'9 9.5
2015-Jul-27 15:33N 38°05' E 015°36'9 8.7
2015-Jul-27 14:33N 37°58' E 015°30'8 8.4
2015-Jul-27 13:33N 37°52' E 015°21'  
2015-Jul-24 14:23N 37°51' E 015°18'911.4
2015-Jul-24 13:33N 37°58' E 015°25'1111.2
2015-Jul-24 12:33N 38°07' E 015°33'10 9.6
2015-Jul-24 11:34N 38°16' E 015°40'1110.5
2015-Jul-24 10:33N 38°22' E 015°29'1111.1
2015-Jul-24 09:32N 38°30' E 015°19'10 9.9
2015-Jul-24 08:33N 38°36' E 015°09'4 1.1
2015-Jul-24 05:14N 38°38' E 015°05'0 0.0
2015-Jul-24 04:29N 38°38' E 015°05'0 0.0
2015-Jul-24 03:29N 38°38' E 015°05'0 0.0
2015-Jul-24 00:29N 38°38' E 015°05'0 0.0
2015-Jul-23 23:32N 38°38' E 015°05'0 0.0
2015-Jul-23 22:29N 38°38' E 015°05'0 0.0
2015-Jul-23 06:22N 38°38' E 015°05'0 0.0
2015-Jul-23 05:31N 38°38' E 015°05'0 0.0
2015-Jul-23 04:10N 38°38' E 015°05'0 0.0
2015-Jul-23 03:16N 38°38' E 015°05'0 0.0
2015-Jul-22 17:04N 38°38' E 015°05'0 0.0
2015-Jul-22 16:25N 38°38' E 015°05'0 0.0
2015-Jul-21 20:13N 38°38' E 015°05'13 1.5
2015-Jul-21 11:32N 38°27' E 015°14'1010.1
2015-Jul-21 10:31N 38°22' E 015°25'1310.5
2015-Jul-21 09:14N 38°17' E 015°41'7 8.1
2015-Jul-21 08:21N 38°11' E 015°37'  
Track history (hours):
 
Tides and Currents Weather Stations Pressure Air Temp Water Temp Dewpoint Dewpoint Depression Visibility Wind Speed Wind Dir Waves Ship Positions

Elena Of London

Last reported at 2015-Jul-29 21:28 UTC. Time now 2015-Jul-29 22:01 UTC.
Position N 38°37' E 015°04'.

Length 44 m; draft 5.2 m.

Type: Sailing vessel. MMSI: 235074534.

Date/timePositionNaut miles runAvg speedWind from/ knotsBaromVisibWave heightAir tempDewpointWater temp
2015-Jul-29 21:28N 38°37' E 015°04'0 0.0
2015-Jul-29 20:33N 38°37' E 015°04'0 0.0
2015-Jul-29 18:12N 38°37' E 015°04'0 0.0
2015-Jul-29 17:17N 38°37' E 015°04'0 0.0
2015-Jul-29 16:32N 38°37' E 015°04'0 0.0
2015-Jul-29 11:24N 38°38' E 015°04'1 0.9
2015-Jul-29 10:32N 38°38' E 015°05'0 0.0
2015-Jul-29 09:30N 38°38' E 015°05'0 0.0
2015-Jul-29 08:22N 38°38' E 015°05'0 0.0
2015-Jul-29 07:32N 38°38' E 015°05'0 0.0
2015-Jul-29 02:09N 38°38' E 015°05'0 0.0
2015-Jul-29 01:31N 38°38' E 015°05'0 0.0
2015-Jul-29 00:13N 38°38' E 015°05'0 0.0
2015-Jul-28 17:05N 38°38' E 015°05'0 0.0
2015-Jul-28 16:32N 38°38' E 015°05'1 1.1
2015-Jul-28 15:33N 38°39' E 015°06'1 0.5
2015-Jul-28 13:07N 38°38' E 015°05'0 0.0
2015-Jul-28 09:29N 38°38' E 015°05'0 0.0
2015-Jul-28 08:33N 38°38' E 015°05'0 0.0
2015-Jul-28 07:33N 38°38' E 015°05'0 0.0
2015-Jul-28 06:30N 38°38' E 015°05'0 0.0
2015-Jul-28 03:33N 38°38' E 015°05'0 0.0
2015-Jul-28 02:33N 38°38' E 015°05'0 0.0
2015-Jul-28 01:33N 38°38' E 015°05'0 0.0
2015-Jul-28 00:33N 38°38' E 015°05'0 0.0
2015-Jul-27 23:33N 38°38' E 015°05'0 0.0
2015-Jul-27 22:33N 38°38' E 015°05'0 0.0
2015-Jul-27 21:28N 38°38' E 015°05'5 5.3
2015-Jul-27 20:33N 38°35' E 015°10'8 8.5
2015-Jul-27 19:33N 38°31' E 015°19'9 9.4
2015-Jul-27 18:33N 38°26' E 015°30'1010.0
2015-Jul-27 17:33N 38°21' E 015°41'7 6.9
2015-Jul-27 16:33N 38°14' E 015°38'9 9.5
2015-Jul-27 15:33N 38°05' E 015°36'9 8.7
2015-Jul-27 14:33N 37°58' E 015°30'8 8.4
2015-Jul-27 13:33N 37°52' E 015°21'  
2015-Jul-24 14:23N 37°51' E 015°18'911.4
2015-Jul-24 13:33N 37°58' E 015°25'1111.2
2015-Jul-24 12:33N 38°07' E 015°33'10 9.6
2015-Jul-24 11:34N 38°16' E 015°40'1110.5
2015-Jul-24 10:33N 38°22' E 015°29'1111.1
2015-Jul-24 09:32N 38°30' E 015°19'10 9.9
2015-Jul-24 08:33N 38°36' E 015°09'4 1.1
2015-Jul-24 05:14N 38°38' E 015°05'0 0.0
2015-Jul-24 04:29N 38°38' E 015°05'0 0.0
2015-Jul-24 03:29N 38°38' E 015°05'0 0.0
2015-Jul-24 00:29N 38°38' E 015°05'0 0.0
2015-Jul-23 23:32N 38°38' E 015°05'0 0.0
2015-Jul-23 22:29N 38°38' E 015°05'0 0.0
2015-Jul-23 06:22N 38°38' E 015°05'0 0.0
2015-Jul-23 05:31N 38°38' E 015°05'0 0.0
2015-Jul-23 04:10N 38°38' E 015°05'0 0.0
2015-Jul-23 03:16N 38°38' E 015°05'0 0.0
2015-Jul-22 17:04N 38°38' E 015°05'0 0.0
2015-Jul-22 16:25N 38°38' E 015°05'0 0.0
2015-Jul-21 20:13N 38°38' E 015°05'13 1.5
2015-Jul-21 11:32N 38°27' E 015°14'1010.1
2015-Jul-21 10:31N 38°22' E 015°25'1310.5
2015-Jul-21 09:14N 38°17' E 015°41'7 8.1
2015-Jul-21 08:21N 38°11' E 015°37'  

Dump ship's entire track history